createdAt,value
2023-12-21T00:00:23.165Z,0.30
2023-12-21T00:02:51.109Z,0.40
2023-12-21T00:05:20.712Z,0.55
2023-12-21T00:07:48.968Z,0.40
2023-12-21T00:10:17.281Z,0.40
2023-12-21T00:12:45.726Z,0.30
2023-12-21T00:15:14.391Z,0.50
2023-12-21T00:17:42.453Z,0.35
2023-12-21T00:20:10.871Z,0.40
2023-12-21T00:22:40.399Z,0.32
2023-12-21T00:25:09.158Z,0.32
2023-12-21T00:27:37.166Z,0.45
2023-12-21T00:30:06.416Z,0.35
2023-12-21T00:32:34.634Z,0.30
2023-12-21T00:35:02.798Z,0.30
2023-12-21T00:37:37.583Z,0.40
2023-12-21T00:40:08.844Z,0.40
2023-12-21T00:42:39.543Z,0.50
2023-12-21T00:45:08.429Z,0.45
2023-12-21T00:47:36.570Z,0.55
2023-12-21T00:50:05.115Z,0.40
2023-12-21T00:52:33.221Z,0.43
2023-12-21T00:55:01.471Z,0.35
2023-12-21T00:57:30.893Z,0.40
2023-12-21T00:59:58.882Z,0.40
2023-12-21T01:02:26.880Z,0.45
2023-12-21T01:04:54.845Z,0.32
2023-12-21T01:07:22.879Z,0.43
2023-12-21T01:09:50.869Z,0.43
2023-12-21T01:12:18.851Z,0.40
2023-12-21T01:14:48.152Z,0.40
2023-12-21T01:17:16.083Z,0.50
2023-12-21T01:19:44.166Z,0.30
2023-12-21T01:22:12.245Z,0.30
2023-12-21T01:24:40.409Z,0.30
2023-12-21T01:27:16.024Z,0.40
2023-12-21T01:29:51.233Z,0.40
2023-12-21T01:32:19.239Z,0.40
2023-12-21T01:34:47.296Z,0.55
2023-12-21T01:37:15.336Z,0.45
2023-12-21T01:39:43.313Z,0.38
2023-12-21T01:42:11.482Z,0.30
2023-12-21T01:44:39.508Z,0.50
2023-12-21T01:47:09.292Z,0.70
2023-12-21T01:49:37.394Z,0.63
2023-12-21T01:52:06.728Z,0.40
2023-12-21T01:54:34.804Z,0.30
2023-12-21T01:57:03.028Z,0.30
2023-12-21T01:59:32.120Z,0.30
2023-12-21T02:02:00.373Z,0.30
2023-12-21T02:04:30.296Z,0.30
2023-12-21T02:06:58.549Z,0.40
2023-12-21T02:09:26.700Z,0.30
2023-12-21T02:11:54.695Z,0.35
2023-12-21T02:14:23.045Z,0.30
2023-12-21T02:16:55.686Z,0.40
2023-12-21T02:19:24.009Z,0.30
2023-12-21T02:21:58.513Z,0.30
2023-12-21T02:24:29.279Z,0.30
2023-12-21T02:26:57.331Z,0.40
2023-12-21T02:29:25.342Z,0.30
2023-12-21T02:31:53.635Z,0.38
2023-12-21T02:34:21.689Z,0.35
2023-12-21T02:36:49.661Z,0.30
2023-12-21T02:39:17.635Z,0.40
2023-12-21T02:41:48.895Z,0.30
2023-12-21T02:44:16.840Z,0.30
2023-12-21T02:46:44.850Z,0.30
2023-12-21T02:49:13.032Z,0.30
2023-12-21T02:51:41.261Z,0.43
2023-12-21T02:54:09.232Z,0.70
2023-12-21T02:56:37.180Z,0.40
2023-12-21T02:59:06.472Z,0.40
2023-12-21T03:01:34.499Z,0.30
2023-12-21T03:04:02.659Z,0.40
2023-12-21T03:06:30.621Z,0.30
2023-12-21T03:08:58.595Z,0.30
2023-12-21T03:11:26.541Z,0.30
2023-12-21T03:13:54.468Z,0.30
2023-12-21T03:16:23.835Z,0.30
2023-12-21T03:18:51.824Z,0.40
2023-12-21T03:21:19.925Z,0.30
2023-12-21T03:23:47.950Z,0.30
2023-12-21T03:26:15.991Z,0.40
2023-12-21T03:28:46.115Z,0.38
2023-12-21T03:31:14.216Z,0.30
2023-12-21T03:33:43.704Z,0.32
2023-12-21T03:36:13.910Z,0.30
2023-12-21T03:38:41.933Z,0.40
2023-12-21T03:41:10.223Z,0.30
2023-12-21T03:43:39.106Z,0.30
2023-12-21T03:46:10.406Z,0.20
2023-12-21T03:48:38.448Z,0.30
2023-12-21T03:51:08.030Z,0.30
2023-12-21T03:53:39.076Z,0.30
2023-12-21T03:56:08.535Z,0.30
2023-12-21T03:58:37.915Z,0.30
2023-12-21T04:01:06.151Z,0.30
2023-12-21T04:03:34.124Z,0.30
2023-12-21T04:06:02.070Z,0.40
2023-12-21T04:08:31.437Z,0.30
2023-12-21T04:10:59.406Z,0.40
2023-12-21T04:13:27.379Z,0.40
2023-12-21T04:15:55.365Z,0.30
2023-12-21T04:18:23.485Z,0.20
2023-12-21T04:20:51.486Z,0.60
2023-12-21T04:23:19.432Z,0.30
2023-12-21T04:25:48.794Z,0.30
2023-12-21T04:28:16.849Z,0.30
2023-12-21T04:30:45.169Z,0.45
2023-12-21T04:33:14.010Z,0.32
2023-12-21T04:35:45.116Z,0.50
2023-12-21T04:38:13.159Z,0.40
2023-12-21T04:40:41.242Z,0.73
2023-12-21T04:43:11.600Z,0.47
2023-12-21T04:45:39.608Z,0.30
2023-12-21T04:48:08.734Z,0.30
2023-12-21T04:50:36.959Z,0.40
2023-12-21T04:53:05.116Z,0.40
2023-12-21T04:55:33.137Z,0.30
2023-12-21T04:58:03.839Z,0.30
2023-12-21T05:00:33.272Z,0.40
2023-12-21T05:03:01.334Z,0.30
2023-12-21T05:05:29.314Z,0.40
2023-12-21T05:07:57.355Z,0.30
2023-12-21T05:10:25.405Z,0.30
2023-12-21T05:12:53.545Z,0.30
2023-12-21T05:15:21.476Z,0.30
2023-12-21T05:17:50.819Z,0.50
2023-12-21T05:20:18.880Z,0.30
2023-12-21T05:22:47.110Z,0.68
2023-12-21T05:25:17.222Z,0.60
2023-12-21T05:27:45.376Z,0.60
2023-12-21T05:30:14.108Z,0.40
2023-12-21T05:32:42.088Z,0.30
2023-12-21T05:35:11.619Z,0.40
2023-12-21T05:37:39.693Z,0.40
2023-12-21T05:40:08.941Z,0.32
2023-12-21T05:42:37.410Z,0.40
2023-12-21T05:45:06.284Z,0.20
2023-12-21T05:47:34.328Z,0.30
2023-12-21T05:50:03.271Z,0.30
2023-12-21T05:52:32.895Z,0.30
2023-12-21T05:55:00.941Z,0.57
2023-12-21T05:57:28.983Z,0.30
2023-12-21T05:59:56.937Z,0.40
2023-12-21T06:02:24.958Z,0.40
2023-12-21T06:04:52.951Z,0.30
2023-12-21T06:07:21.377Z,0.32
2023-12-21T06:09:51.227Z,0.40
2023-12-21T06:12:19.206Z,0.52
2023-12-21T06:14:47.137Z,0.73
2023-12-21T06:17:16.191Z,1.35
2023-12-21T06:19:44.802Z,1.30
2023-12-21T06:22:12.920Z,0.45
2023-12-21T06:24:40.873Z,0.50
2023-12-21T06:27:10.217Z,0.47
2023-12-21T06:29:38.246Z,0.75
2023-12-21T06:32:07.608Z,0.80
2023-12-21T06:34:35.667Z,0.50
2023-12-21T06:37:04.614Z,0.70
2023-12-21T06:39:34.122Z,0.50
2023-12-21T06:42:02.677Z,0.40
2023-12-21T06:44:32.106Z,0.75
2023-12-21T06:47:00.168Z,0.55
2023-12-21T06:49:28.212Z,0.40
2023-12-21T06:51:56.184Z,0.57
2023-12-21T06:54:24.214Z,0.40
2023-12-21T06:56:52.518Z,0.55
2023-12-21T06:59:20.466Z,0.30
2023-12-21T07:01:49.775Z,0.40
2023-12-21T07:04:18.304Z,0.30
2023-12-21T07:06:46.281Z,0.40
2023-12-21T07:09:15.204Z,0.50
2023-12-21T07:11:43.229Z,0.40
2023-12-21T07:14:11.231Z,0.30
2023-12-21T07:16:39.248Z,0.47
2023-12-21T07:19:08.868Z,0.47
2023-12-21T07:21:36.869Z,0.40
2023-12-21T07:24:05.309Z,0.40
2023-12-21T07:26:33.981Z,0.30
2023-12-21T07:29:02.618Z,0.40
2023-12-21T07:31:30.642Z,0.70
2023-12-21T07:33:58.769Z,0.60
2023-12-21T07:36:28.147Z,0.50
2023-12-21T07:38:56.117Z,0.30
2023-12-21T07:41:24.084Z,0.30
2023-12-21T07:43:52.013Z,0.30
2023-12-21T07:46:21.872Z,0.40
2023-12-21T07:48:49.912Z,0.40
2023-12-21T07:51:18.004Z,0.30
2023-12-21T07:53:47.321Z,0.50
2023-12-21T07:56:15.466Z,0.50
2023-12-21T07:58:43.537Z,0.30
2023-12-21T08:01:11.884Z,0.35
2023-12-21T08:03:39.957Z,0.30
2023-12-21T08:06:07.969Z,0.40
2023-12-21T08:08:39.665Z,0.47
2023-12-21T08:11:14.479Z,0.50
2023-12-21T08:13:42.530Z,0.43
2023-12-21T08:16:10.545Z,0.50
2023-12-21T08:18:38.528Z,0.50
2023-12-21T08:21:06.718Z,0.45
2023-12-21T08:23:34.691Z,0.40
2023-12-21T08:26:03.473Z,0.40
2023-12-21T08:28:32.939Z,0.80
2023-12-21T08:31:01.818Z,1.02
2023-12-21T08:33:30.691Z,0.40
2023-12-21T08:35:59.792Z,0.30
2023-12-21T08:38:27.803Z,0.60
2023-12-21T08:40:55.870Z,0.40
2023-12-21T08:43:23.870Z,0.40
2023-12-21T08:45:55.364Z,0.30
2023-12-21T08:48:23.418Z,0.45
2023-12-21T08:50:51.439Z,0.32
2023-12-21T08:53:19.356Z,0.40
2023-12-21T08:55:47.457Z,0.30
2023-12-21T08:58:15.564Z,0.40
2023-12-21T09:00:45.530Z,0.43
2023-12-21T09:03:14.961Z,0.70
2023-12-21T09:05:43.049Z,0.40
2023-12-21T09:08:11.062Z,1.83
2023-12-21T09:10:39.066Z,3.55
2023-12-21T09:13:07.062Z,1.15
2023-12-21T09:15:37.591Z,1.00
2023-12-21T09:18:07.465Z,0.57
2023-12-21T09:20:36.852Z,0.30
2023-12-21T09:23:05.772Z,0.70
2023-12-21T09:25:34.255Z,0.65
2023-12-21T09:28:04.296Z,0.40
2023-12-21T09:30:32.575Z,0.50
2023-12-21T09:33:01.715Z,0.30
2023-12-21T09:35:29.990Z,0.30
2023-12-21T09:37:59.373Z,0.30
2023-12-21T09:40:27.517Z,0.30
2023-12-21T09:43:05.375Z,0.30
2023-12-21T09:45:40.958Z,0.45
2023-12-21T09:48:10.030Z,0.20
2023-12-21T09:50:38.264Z,0.30
2023-12-21T09:53:07.945Z,0.30
2023-12-21T09:55:36.894Z,0.33
2023-12-21T09:58:07.185Z,0.35
2023-12-21T10:00:36.012Z,1.75
2023-12-21T10:03:05.081Z,0.53
2023-12-21T10:05:33.126Z,0.63
2023-12-21T10:08:01.461Z,0.40
2023-12-21T10:10:31.269Z,0.40
2023-12-21T10:13:03.227Z,0.50
2023-12-21T10:15:33.881Z,0.50
2023-12-21T10:18:02.334Z,0.50
2023-12-21T10:20:30.315Z,0.40
2023-12-21T10:22:58.574Z,0.53
2023-12-21T10:25:28.239Z,0.30
2023-12-21T10:27:58.484Z,0.30
2023-12-21T10:30:26.859Z,0.40
2023-12-21T10:32:57.778Z,0.40
2023-12-21T10:35:28.032Z,0.70
2023-12-21T10:37:56.811Z,0.40
2023-12-21T10:40:25.039Z,0.30
2023-12-21T10:42:53.810Z,0.30
2023-12-21T10:45:33.663Z,0.30
2023-12-21T10:48:08.801Z,0.30
2023-12-21T10:50:38.233Z,0.40
2023-12-21T10:53:07.158Z,0.30
2023-12-21T10:55:36.370Z,0.30
2023-12-21T10:58:07.824Z,0.30
2023-12-21T11:00:37.715Z,0.20
2023-12-21T11:03:09.288Z,0.20
2023-12-21T11:05:41.154Z,0.33
2023-12-21T11:08:09.545Z,0.30
2023-12-21T11:10:38.896Z,0.30
2023-12-21T11:13:07.371Z,0.30
2023-12-21T11:15:38.314Z,0.30
2023-12-21T11:18:10.113Z,0.43
2023-12-21T11:20:48.385Z,0.27
2023-12-21T11:23:18.786Z,1.40
2023-12-21T11:25:56.196Z,1.27
2023-12-21T11:28:28.777Z,1.10
2023-12-21T11:30:58.190Z,1.80
2023-12-21T11:33:30.106Z,1.03
2023-12-21T11:35:59.050Z,0.53
2023-12-21T11:38:43.183Z,0.50
2023-12-21T11:41:11.686Z,0.90
2023-12-21T11:43:39.719Z,1.13
2023-12-21T11:46:10.275Z,0.50
2023-12-21T11:48:40.415Z,0.40
2023-12-21T11:51:08.452Z,0.47
2023-12-21T11:53:43.270Z,1.27
2023-12-21T11:56:15.271Z,0.67
2023-12-21T11:58:44.839Z,0.40
2023-12-21T12:01:27.096Z,0.40
2023-12-21T12:03:55.550Z,0.40
2023-12-21T12:06:27.010Z,0.40
2023-12-21T12:08:55.011Z,0.50
2023-12-21T12:11:23.020Z,0.47
2023-12-21T12:13:51.000Z,0.40
2023-12-21T12:16:19.629Z,0.30
2023-12-21T12:18:49.097Z,0.50
2023-12-21T12:21:18.087Z,0.40
2023-12-21T12:23:48.663Z,0.30
2023-12-21T12:26:17.598Z,0.30
2023-12-21T12:28:45.998Z,0.60
2023-12-21T12:31:14.648Z,0.40
2023-12-21T12:33:42.893Z,0.53
2023-12-21T12:36:12.626Z,0.40
2023-12-21T12:38:40.615Z,0.30
2023-12-21T12:41:08.905Z,0.40
2023-12-21T12:43:37.010Z,0.30
2023-12-21T12:46:06.345Z,0.50
2023-12-21T12:48:34.676Z,0.60
2023-12-21T12:51:02.720Z,0.70
2023-12-21T12:53:32.121Z,0.67
2023-12-21T12:56:01.210Z,0.30
2023-12-21T12:58:48.412Z,0.40
2023-12-21T13:01:26.550Z,0.60
2023-12-21T13:03:55.372Z,0.40
2023-12-21T13:06:23.625Z,0.40
2023-12-21T13:08:53.044Z,0.60
2023-12-21T13:11:22.694Z,0.90
2023-12-21T13:13:51.129Z,0.70
2023-12-21T13:16:20.267Z,0.70
2023-12-21T13:18:49.236Z,1.00
2023-12-21T13:21:17.942Z,0.40
2023-12-21T13:23:45.909Z,0.80
2023-12-21T13:26:16.875Z,0.67
2023-12-21T13:28:45.334Z,0.50
2023-12-21T13:31:15.481Z,0.60
2023-12-21T13:33:43.770Z,0.50
2023-12-21T13:36:12.306Z,0.30
2023-12-21T13:38:40.277Z,0.70
2023-12-21T13:41:10.202Z,0.50
2023-12-21T13:43:43.120Z,0.97
2023-12-21T13:46:12.150Z,0.40
2023-12-21T13:48:40.273Z,0.40
2023-12-21T13:51:08.441Z,1.30
2023-12-21T13:53:36.968Z,0.60
2023-12-21T13:56:07.074Z,0.33
2023-12-21T13:58:35.101Z,0.43
2023-12-21T14:01:05.229Z,0.60
2023-12-21T14:03:33.387Z,2.17
2023-12-21T14:06:01.900Z,0.70
2023-12-21T14:08:29.945Z,1.27
2023-12-21T14:10:57.964Z,0.70
2023-12-21T14:13:26.003Z,0.60
2023-12-21T14:15:54.137Z,1.53
2023-12-21T14:18:24.151Z,0.60
2023-12-21T14:20:52.862Z,0.47
2023-12-21T14:23:22.434Z,0.30
2023-12-21T14:25:50.628Z,0.30
2023-12-21T14:28:18.966Z,0.30
2023-12-21T14:30:48.532Z,0.30
2023-12-21T14:33:16.869Z,0.30
2023-12-21T14:35:49.244Z,0.30
2023-12-21T14:38:17.961Z,0.30
2023-12-21T14:40:46.464Z,0.30
2023-12-21T14:43:15.118Z,0.30
2023-12-21T14:45:43.144Z,0.30
2023-12-21T14:48:11.210Z,0.47
2023-12-21T14:50:39.245Z,0.30
2023-12-21T14:53:08.581Z,0.50
2023-12-21T14:55:36.614Z,0.60
2023-12-21T14:58:04.966Z,0.40
2023-12-21T15:00:36.699Z,0.43
2023-12-21T15:03:05.597Z,0.50
2023-12-21T15:05:33.583Z,0.50
2023-12-21T15:08:01.806Z,0.30
2023-12-21T15:10:31.339Z,0.60
2023-12-21T15:12:59.332Z,0.63
2023-12-21T15:15:27.334Z,0.40
2023-12-21T15:17:55.315Z,0.30
2023-12-21T15:20:23.403Z,0.40
2023-12-21T15:22:52.897Z,0.40
2023-12-21T15:25:21.194Z,0.40
2023-12-21T15:27:50.755Z,0.40
2023-12-21T15:30:19.684Z,0.70
2023-12-21T15:32:48.558Z,0.50
2023-12-21T15:35:17.750Z,0.30
2023-12-21T15:37:46.207Z,0.40
2023-12-21T15:40:14.395Z,0.70
2023-12-21T15:42:42.434Z,0.40
2023-12-21T15:45:12.251Z,0.30
2023-12-21T15:47:44.949Z,0.30
2023-12-21T15:50:13.729Z,0.30
2023-12-21T15:52:41.807Z,0.50
2023-12-21T15:55:10.166Z,0.40
2023-12-21T15:57:38.614Z,0.20
2023-12-21T16:00:08.312Z,0.30
2023-12-21T16:02:37.695Z,0.27
2023-12-21T16:05:06.821Z,0.30
2023-12-21T16:07:34.809Z,0.30
2023-12-21T16:10:03.577Z,0.30
2023-12-21T16:12:31.590Z,1.00
2023-12-21T16:15:02.076Z,3.00
2023-12-21T16:17:30.162Z,2.63
2023-12-21T16:19:59.515Z,1.70
2023-12-21T16:22:27.577Z,1.37
2023-12-21T16:24:55.731Z,0.60
2023-12-21T16:27:23.692Z,0.50
2023-12-21T16:29:52.481Z,0.40
2023-12-21T16:32:20.526Z,0.30
2023-12-21T16:34:48.581Z,0.43
2023-12-21T16:37:18.008Z,0.40
2023-12-21T16:39:45.969Z,0.30
2023-12-21T16:42:14.339Z,0.33
2023-12-21T16:44:42.822Z,0.60
2023-12-21T16:47:10.806Z,0.50
2023-12-21T16:49:38.869Z,0.40
2023-12-21T16:52:07.979Z,0.57
2023-12-21T16:54:37.333Z,0.50
2023-12-21T16:57:05.844Z,1.33
2023-12-21T16:59:33.795Z,1.10
2023-12-21T17:02:01.808Z,1.50
2023-12-21T17:04:29.904Z,2.27
2023-12-21T17:06:57.997Z,1.27
2023-12-21T17:09:25.943Z,4.23
2023-12-21T17:11:55.338Z,3.20
2023-12-21T17:14:23.382Z,4.00
2023-12-21T17:16:51.395Z,2.63
2023-12-21T17:19:19.563Z,2.23
2023-12-21T17:21:47.565Z,3.17
2023-12-21T17:24:15.826Z,4.90
2023-12-21T17:26:43.800Z,4.00
2023-12-21T17:29:13.730Z,4.40
2023-12-21T17:31:42.322Z,4.90
2023-12-21T17:34:14.674Z,1.87
2023-12-21T17:36:45.540Z,1.03
2023-12-21T17:39:13.572Z,2.20
2023-12-21T17:41:44.417Z,1.60
2023-12-21T17:44:13.913Z,2.40
2023-12-21T17:46:41.902Z,3.97
2023-12-21T17:49:11.406Z,4.07
2023-12-21T17:51:39.488Z,1.73
2023-12-21T17:54:07.692Z,3.53
2023-12-21T17:56:36.060Z,2.70
2023-12-21T17:59:06.017Z,2.07
2023-12-21T18:01:38.693Z,1.77
2023-12-21T18:04:08.948Z,1.77
2023-12-21T18:06:37.453Z,1.63
2023-12-21T18:09:05.599Z,1.50
2023-12-21T18:11:34.325Z,3.00
2023-12-21T18:14:03.509Z,1.60
2023-12-21T18:16:32.811Z,1.40
2023-12-21T18:19:06.677Z,4.17
2023-12-21T18:21:35.723Z,2.37
2023-12-21T18:24:04.537Z,2.00
2023-12-21T18:26:32.679Z,2.33
2023-12-21T18:29:00.865Z,4.30
2023-12-21T18:31:29.215Z,1.57
2023-12-21T18:33:57.589Z,2.87
2023-12-21T18:36:27.284Z,2.70
2023-12-21T18:38:57.598Z,1.63
2023-12-21T18:41:25.985Z,1.93
2023-12-21T18:43:54.113Z,2.10
2023-12-21T18:46:22.279Z,1.87
2023-12-21T18:48:52.358Z,2.77
2023-12-21T18:51:20.538Z,2.17
2023-12-21T18:53:49.985Z,2.57
2023-12-21T18:56:18.022Z,1.60
2023-12-21T18:58:48.701Z,1.63
2023-12-21T19:01:18.438Z,1.20
2023-12-21T19:03:46.898Z,2.50
2023-12-21T19:06:15.341Z,2.27
2023-12-21T19:08:51.045Z,1.10
2023-12-21T19:11:22.014Z,1.23
2023-12-21T19:13:50.906Z,1.07
2023-12-21T19:16:20.406Z,2.57
2023-12-21T19:18:49.416Z,4.17
2023-12-21T19:21:18.200Z,2.30
2023-12-21T19:23:46.418Z,2.87
2023-12-21T19:26:14.769Z,1.50
2023-12-21T19:28:46.024Z,0.93
2023-12-21T19:31:19.754Z,1.43
2023-12-21T19:33:48.193Z,1.77
2023-12-21T19:36:18.216Z,0.90
2023-12-21T19:38:48.991Z,1.47
2023-12-21T19:41:17.116Z,0.90
2023-12-21T19:43:46.793Z,0.80
2023-12-21T19:46:16.602Z,0.80
2023-12-21T19:48:44.811Z,0.90
2023-12-21T19:51:14.051Z,1.20
2023-12-21T19:53:43.003Z,1.53
2023-12-21T19:56:13.195Z,1.40
2023-12-21T19:58:44.285Z,1.70
2023-12-21T20:01:13.865Z,1.47
2023-12-21T20:03:42.062Z,1.70
2023-12-21T20:06:10.148Z,1.57
2023-12-21T20:08:39.286Z,1.47
2023-12-21T20:11:07.359Z,1.63
2023-12-21T20:13:35.572Z,1.80
2023-12-21T20:16:03.923Z,1.53
2023-12-21T20:18:33.553Z,1.63
2023-12-21T20:21:01.637Z,1.50
2023-12-21T20:23:29.872Z,4.27
2023-12-21T20:25:58.121Z,1.50
2023-12-21T20:28:26.401Z,1.40
2023-12-21T20:30:54.517Z,1.00
2023-12-21T20:33:23.633Z,1.40
2023-12-21T20:35:53.138Z,1.03
2023-12-21T20:38:21.784Z,1.00
2023-12-21T20:40:49.915Z,1.20
2023-12-21T20:43:20.146Z,1.70
2023-12-21T20:45:48.351Z,1.07
2023-12-21T20:48:16.422Z,1.73
2023-12-21T20:50:45.248Z,1.20
2023-12-21T20:53:15.477Z,1.40
2023-12-21T20:55:43.618Z,1.47
2023-12-21T20:58:11.844Z,1.43
2023-12-21T21:00:40.032Z,1.20
2023-12-21T21:03:08.355Z,1.50
2023-12-21T21:05:36.494Z,1.33
2023-12-21T21:08:05.003Z,1.23
2023-12-21T21:10:34.574Z,1.13
2023-12-21T21:13:02.775Z,1.07
2023-12-21T21:15:31.878Z,1.37
2023-12-21T21:18:00.129Z,1.37
2023-12-21T21:20:28.387Z,1.40
2023-12-21T21:22:57.058Z,1.00
2023-12-21T21:25:25.259Z,1.30
2023-12-21T21:27:54.779Z,0.83
2023-12-21T21:30:54.988Z,0.97
2023-12-21T21:33:11.598Z,1.20
2023-12-21T21:35:39.805Z,1.10
2023-12-21T21:38:07.911Z,0.70
2023-12-21T21:40:37.917Z,0.70
2023-12-21T21:43:09.372Z,0.80
2023-12-21T21:45:37.463Z,1.00
2023-12-21T21:48:06.494Z,0.80
2023-12-21T21:50:34.622Z,0.73
2023-12-21T21:53:02.833Z,1.20
2023-12-21T21:55:31.193Z,1.33
2023-12-21T21:58:02.168Z,1.00
2023-12-21T22:00:31.777Z,1.40
2023-12-21T22:03:07.004Z,1.20
2023-12-21T22:05:35.317Z,1.67
2023-12-21T22:08:08.903Z,1.43
2023-12-21T22:10:37.092Z,2.10
2023-12-21T22:13:05.481Z,1.50
2023-12-21T22:15:34.887Z,1.80
2023-12-21T22:18:07.162Z,1.50
2023-12-21T22:20:35.710Z,1.93
2023-12-21T22:23:05.037Z,1.80
2023-12-21T22:25:34.571Z,2.00
2023-12-21T22:28:02.955Z,2.00
2023-12-21T22:30:32.275Z,1.93
2023-12-21T22:33:03.529Z,1.83
2023-12-21T22:35:32.236Z,2.07
2023-12-21T22:38:02.293Z,1.87
2023-12-21T22:40:30.511Z,1.70
2023-12-21T22:43:02.165Z,2.17
2023-12-21T22:45:30.604Z,1.63
2023-12-21T22:48:01.118Z,2.20
2023-12-21T22:50:29.410Z,1.97
2023-12-21T22:52:57.686Z,2.20
2023-12-21T22:55:26.927Z,2.13
2023-12-21T22:57:56.645Z,2.13
2023-12-21T23:00:24.785Z,2.40
2023-12-21T23:02:53.107Z,1.50
2023-12-21T23:05:23.025Z,1.47
2023-12-21T23:07:51.309Z,1.00
2023-12-21T23:10:21.121Z,1.20
2023-12-21T23:12:49.704Z,1.00
2023-12-21T23:15:25.326Z,1.93
2023-12-21T23:17:53.700Z,1.90
2023-12-21T23:20:23.228Z,1.60
2023-12-21T23:22:51.590Z,1.10
2023-12-21T23:25:20.822Z,1.60
2023-12-21T23:27:51.884Z,1.80
2023-12-21T23:30:20.137Z,1.37
2023-12-21T23:32:48.603Z,1.65
2023-12-21T23:35:19.092Z,2.03
2023-12-21T23:37:50.479Z,1.60
2023-12-21T23:40:19.397Z,2.13
2023-12-21T23:42:48.017Z,2.23
2023-12-21T23:45:16.429Z,2.00
2023-12-21T23:47:44.775Z,1.87
2023-12-21T23:50:13.177Z,1.57
2023-12-21T23:52:41.383Z,1.87
2023-12-21T23:55:11.243Z,1.70
2023-12-21T23:57:39.440Z,1.80
